sensor_id;sensor_type;location;lat;lon;timestamp;pressure;altitude;pressure_sealevel;temperature;humidity
54465;BME280;40374;49.480;20.016;2023-03-19T00:00:49;95153.81;;;1.17;100.00
54465;BME280;40374;49.480;20.016;2023-03-19T00:03:36;95149.97;;;1.13;100.00
54465;BME280;40374;49.480;20.016;2023-03-19T00:06:04;95151.81;;;1.12;100.00
54465;BME280;40374;49.480;20.016;2023-03-19T00:08:31;95149.63;;;1.09;100.00
54465;BME280;40374;49.480;20.016;2023-03-19T00:11:04;95142.41;;;1.16;100.00
54465;BME280;40374;49.480;20.016;2023-03-19T00:13:32;95142.13;;;0.99;100.00
54465;BME280;40374;49.480;20.016;2023-03-19T00:15:59;95145.78;;;1.05;100.00
54465;BME280;40374;49.480;20.016;2023-03-19T00:18:27;95144.31;;;1.09;100.00
54465;BME280;40374;49.480;20.016;2023-03-19T00:20:55;95146.06;;;1.15;100.00
54465;BME280;40374;49.480;20.016;2023-03-19T00:23:23;95151.81;;;1.12;100.00
54465;BME280;40374;49.480;20.016;2023-03-19T00:25:50;95156.13;;;1.07;100.00
54465;BME280;40374;49.480;20.016;2023-03-19T00:28:18;95155.19;;;0.94;100.00
54465;BME280;40374;49.480;20.016;2023-03-19T00:30:45;95152.84;;;0.86;100.00
54465;BME280;40374;49.480;20.016;2023-03-19T00:33:12;95153.69;;;0.80;100.00
54465;BME280;40374;49.480;20.016;2023-03-19T00:35:40;95151.28;;;0.72;100.00
54465;BME280;40374;49.480;20.016;2023-03-19T00:38:08;95157.38;;;0.72;100.00
54465;BME280;40374;49.480;20.016;2023-03-19T00:40:35;95153.75;;;0.67;100.00
54465;BME280;40374;49.480;20.016;2023-03-19T00:43:03;95152.34;;;0.64;100.00
54465;BME280;40374;49.480;20.016;2023-03-19T00:45:30;95145.00;;;0.66;100.00
54465;BME280;40374;49.480;20.016;2023-03-19T00:47:58;95141.16;;;0.62;100.00
54465;BME280;40374;49.480;20.016;2023-03-19T00:50:26;95146.84;;;0.66;100.00
54465;BME280;40374;49.480;20.016;2023-03-19T00:52:53;95146.91;;;0.59;100.00
54465;BME280;40374;49.480;20.016;2023-03-19T00:55:22;95151.34;;;0.58;100.00
54465;BME280;40374;49.480;20.016;2023-03-19T00:57:52;95153.41;;;0.56;100.00
54465;BME280;40374;49.480;20.016;2023-03-19T01:00:19;95151.19;;;0.53;100.00
54465;BME280;40374;49.480;20.016;2023-03-19T01:02:46;95149.09;;;0.62;100.00
54465;BME280;40374;49.480;20.016;2023-03-19T01:05:14;95142.34;;;0.66;100.00
54465;BME280;40374;49.480;20.016;2023-03-19T01:07:42;95152.44;;;0.51;100.00
54465;BME280;40374;49.480;20.016;2023-03-19T01:10:10;95143.81;;;0.62;100.00
54465;BME280;40374;49.480;20.016;2023-03-19T01:12:37;95146.69;;;0.54;100.00
54465;BME280;40374;49.480;20.016;2023-03-19T01:15:05;95148.16;;;0.50;100.00
54465;BME280;40374;49.480;20.016;2023-03-19T01:17:33;95147.78;;;0.39;100.00
54465;BME280;40374;49.480;20.016;2023-03-19T01:20:00;95138.03;;;0.40;100.00
54465;BME280;40374;49.480;20.016;2023-03-19T01:22:28;95135.16;;;0.42;100.00
54465;BME280;40374;49.480;20.016;2023-03-19T01:24:58;95138.66;;;0.42;100.00
54465;BME280;40374;49.480;20.016;2023-03-19T01:27:26;95134.56;;;0.39;100.00
54465;BME280;40374;49.480;20.016;2023-03-19T01:29:53;95132.41;;;0.23;100.00
54465;BME280;40374;49.480;20.016;2023-03-19T01:32:56;95139.91;;;0.33;100.00
54465;BME280;40374;49.480;20.016;2023-03-19T01:35:34;95144.78;;;0.29;100.00
54465;BME280;40374;49.480;20.016;2023-03-19T01:38:02;95154.16;;;0.25;100.00
54465;BME280;40374;49.480;20.016;2023-03-19T01:40:29;95146.25;;;0.18;100.00
54465;BME280;40374;49.480;20.016;2023-03-19T01:43:14;95144.19;;;0.27;100.00
54465;BME280;40374;49.480;20.016;2023-03-19T01:45:50;95152.63;;;0.04;100.00
54465;BME280;40374;49.480;20.016;2023-03-19T01:51:10;95154.44;;;0.10;100.00
54465;BME280;40374;49.480;20.016;2023-03-19T01:54:05;95153.47;;;0.05;100.00
54465;BME280;40374;49.480;20.016;2023-03-19T01:56:41;95157.13;;;-0.03;100.00
54465;BME280;40374;49.480;20.016;2023-03-19T01:59:36;95166.22;;;0.21;100.00
54465;BME280;40374;49.480;20.016;2023-03-19T02:02:36;95154.28;;;-0.02;100.00
54465;BME280;40374;49.480;20.016;2023-03-19T02:05:18;95158.97;;;-0.04;100.00
54465;BME280;40374;49.480;20.016;2023-03-19T02:07:59;95161.56;;;0.10;100.00
54465;BME280;40374;49.480;20.016;2023-03-19T02:10:29;95164.25;;;-0.04;100.00
54465;BME280;40374;49.480;20.016;2023-03-19T02:12:57;95164.72;;;-0.20;100.00
54465;BME280;40374;49.480;20.016;2023-03-19T02:15:24;95170.44;;;-0.23;100.00
54465;BME280;40374;49.480;20.016;2023-03-19T02:17:52;95156.59;;;-0.25;100.00
54465;BME280;40374;49.480;20.016;2023-03-19T02:20:39;95156.53;;;-0.05;100.00
54465;BME280;40374;49.480;20.016;2023-03-19T02:23:48;95156.53;;;-0.05;100.00
54465;BME280;40374;49.480;20.016;2023-03-19T02:26:30;95147.69;;;-0.37;100.00
54465;BME280;40374;49.480;20.016;2023-03-19T02:29:01;95154.97;;;-0.33;100.00
54465;BME280;40374;49.480;20.016;2023-03-19T02:31:33;95145.63;;;-0.42;100.00
54465;BME280;40374;49.480;20.016;2023-03-19T02:36:36;95144.78;;;-0.16;100.00
54465;BME280;40374;49.480;20.016;2023-03-19T02:39:09;95153.31;;;-0.14;100.00
54465;BME280;40374;49.480;20.016;2023-03-19T02:41:40;95141.75;;;-0.26;100.00
54465;BME280;40374;49.480;20.016;2023-03-19T02:44:10;95154.34;;;-0.22;100.00
54465;BME280;40374;49.480;20.016;2023-03-19T02:46:38;95144.44;;;-0.53;100.00
54465;BME280;40374;49.480;20.016;2023-03-19T02:49:05;95132.25;;;-0.54;100.00
54465;BME280;40374;49.480;20.016;2023-03-19T02:51:33;95147.28;;;-0.48;100.00
54465;BME280;40374;49.480;20.016;2023-03-19T02:54:00;95150.78;;;-0.60;100.00
54465;BME280;40374;49.480;20.016;2023-03-19T02:56:28;95145.28;;;-0.66;100.00
54465;BME280;40374;49.480;20.016;2023-03-19T02:58:55;95147.72;;;-0.71;100.00
54465;BME280;40374;49.480;20.016;2023-03-19T03:01:23;95146.06;;;-0.65;100.00
54465;BME280;40374;49.480;20.016;2023-03-19T03:03:50;62409.59;;;-145.97;100.00
54465;BME280;40374;49.480;20.016;2023-03-19T03:06:18;62409.59;;;-145.97;100.00
54465;BME280;40374;49.480;20.016;2023-03-19T03:08:45;62409.59;;;-145.97;100.00
54465;BME280;40374;49.480;20.016;2023-03-19T03:11:12;62409.59;;;-145.97;100.00
54465;BME280;40374;49.480;20.016;2023-03-19T03:13:40;62409.59;;;-145.97;100.00
54465;BME280;40374;49.480;20.016;2023-03-19T03:16:07;62409.59;;;-145.97;100.00
54465;BME280;40374;49.480;20.016;2023-03-19T03:18:35;62409.59;;;-145.97;100.00
54465;BME280;40374;49.480;20.016;2023-03-19T03:21:03;62409.59;;;-145.97;100.00
54465;BME280;40374;49.480;20.016;2023-03-19T03:23:30;62409.59;;;-145.97;100.00
54465;BME280;40374;49.480;20.016;2023-03-19T03:25:59;62409.59;;;-145.97;100.00
54465;BME280;40374;49.480;20.016;2023-03-19T03:28:26;62409.59;;;-145.97;100.00
54465;BME280;40374;49.480;20.016;2023-03-19T03:30:58;62409.59;;;-145.97;100.00
54465;BME280;40374;49.480;20.016;2023-03-19T03:33:25;62409.59;;;-145.97;100.00
54465;BME280;40374;49.480;20.016;2023-03-19T03:35:53;62409.59;;;-145.97;100.00
54465;BME280;40374;49.480;20.016;2023-03-19T03:38:20;62409.59;;;-145.97;100.00
54465;BME280;40374;49.480;20.016;2023-03-19T03:40:50;62409.59;;;-145.97;100.00
54465;BME280;40374;49.480;20.016;2023-03-19T03:43:24;62409.59;;;-145.97;100.00
54465;BME280;40374;49.480;20.016;2023-03-19T03:45:52;62409.59;;;-145.97;100.00
54465;BME280;40374;49.480;20.016;2023-03-19T03:48:20;62409.59;;;-145.97;100.00
54465;BME280;40374;49.480;20.016;2023-03-19T03:50:48;62409.59;;;-145.97;100.00
54465;BME280;40374;49.480;20.016;2023-03-19T03:53:20;62409.59;;;-145.97;100.00
54465;BME280;40374;49.480;20.016;2023-03-19T03:55:48;62409.59;;;-145.97;100.00
54465;BME280;40374;49.480;20.016;2023-03-19T03:58:19;62409.59;;;-145.97;100.00
54465;BME280;40374;49.480;20.016;2023-03-19T04:00:47;62409.59;;;-145.97;100.00
54465;BME280;40374;49.480;20.016;2023-03-19T04:03:14;62409.59;;;-145.97;100.00
54465;BME280;40374;49.480;20.016;2023-03-19T04:05:43;62409.59;;;-145.97;100.00
54465;BME280;40374;49.480;20.016;2023-03-19T04:08:10;62409.59;;;-145.97;100.00
54465;BME280;40374;49.480;20.016;2023-03-19T04:10:40;62409.59;;;-145.97;100.00
54465;BME280;40374;49.480;20.016;2023-03-19T04:13:09;62409.59;;;-145.97;100.00
54465;BME280;40374;49.480;20.016;2023-03-19T04:15:38;62409.59;;;-145.97;100.00
54465;BME280;40374;49.480;20.016;2023-03-19T04:18:05;62409.59;;;-145.97;100.00
54465;BME280;40374;49.480;20.016;2023-03-19T04:20:32;62409.59;;;-145.97;100.00
54465;BME280;40374;49.480;20.016;2023-03-19T04:23:00;62409.59;;;-145.97;100.00
54465;BME280;40374;49.480;20.016;2023-03-19T04:25:29;62409.59;;;-145.97;100.00
54465;BME280;40374;49.480;20.016;2023-03-19T04:27:57;62409.59;;;-145.97;100.00
54465;BME280;40374;49.480;20.016;2023-03-19T04:30:27;62409.59;;;-145.97;100.00
54465;BME280;40374;49.480;20.016;2023-03-19T04:32:55;62409.59;;;-145.97;100.00
54465;BME280;40374;49.480;20.016;2023-03-19T04:35:23;62409.59;;;-145.97;100.00
54465;BME280;40374;49.480;20.016;2023-03-19T04:37:50;62409.59;;;-145.97;100.00
54465;BME280;40374;49.480;20.016;2023-03-19T04:40:20;62409.59;;;-145.97;100.00
54465;BME280;40374;49.480;20.016;2023-03-19T04:42:48;62409.59;;;-145.97;100.00
54465;BME280;40374;49.480;20.016;2023-03-19T04:45:45;62409.59;;;-145.97;100.00
54465;BME280;40374;49.480;20.016;2023-03-19T04:48:12;62409.59;;;-145.97;100.00
54465;BME280;40374;49.480;20.016;2023-03-19T04:50:40;62409.59;;;-145.97;100.00
54465;BME280;40374;49.480;20.016;2023-03-19T04:53:07;62409.59;;;-145.97;100.00
54465;BME280;40374;49.480;20.016;2023-03-19T04:55:35;62409.59;;;-145.97;100.00
54465;BME280;40374;49.480;20.016;2023-03-19T04:58:13;62409.59;;;-145.97;100.00
54465;BME280;40374;49.480;20.016;2023-03-19T05:00:41;62409.59;;;-145.97;100.00
54465;BME280;40374;49.480;20.016;2023-03-19T05:03:09;62409.59;;;-145.97;100.00
54465;BME280;40374;49.480;20.016;2023-03-19T05:05:37;62409.59;;;-145.97;100.00
54465;BME280;40374;49.480;20.016;2023-03-19T05:08:07;62409.59;;;-145.97;100.00
54465;BME280;40374;49.480;20.016;2023-03-19T05:10:36;62409.59;;;-145.97;100.00
54465;BME280;40374;49.480;20.016;2023-03-19T05:13:04;62409.59;;;-145.97;100.00
54465;BME280;40374;49.480;20.016;2023-03-19T05:15:32;62409.59;;;-145.97;100.00
54465;BME280;40374;49.480;20.016;2023-03-19T05:18:04;62409.59;;;-145.97;100.00
54465;BME280;40374;49.480;20.016;2023-03-19T05:20:36;62409.59;;;-145.97;100.00
54465;BME280;40374;49.480;20.016;2023-03-19T05:23:08;62409.59;;;-145.97;100.00
54465;BME280;40374;49.480;20.016;2023-03-19T05:25:43;62409.59;;;-145.97;100.00
54465;BME280;40374;49.480;20.016;2023-03-19T05:28:15;62409.59;;;-145.97;100.00
54465;BME280;40374;49.480;20.016;2023-03-19T05:30:43;62409.59;;;-145.97;100.00
54465;BME280;40374;49.480;20.016;2023-03-19T05:33:23;62409.59;;;-145.97;100.00
54465;BME280;40374;49.480;20.016;2023-03-19T05:35:52;62409.59;;;-145.97;100.00
54465;BME280;40374;49.480;20.016;2023-03-19T05:38:30;62409.59;;;-145.97;100.00
54465;BME280;40374;49.480;20.016;2023-03-19T05:41:06;62409.59;;;-145.97;100.00
54465;BME280;40374;49.480;20.016;2023-03-19T05:43:52;62409.59;;;-145.97;100.00
54465;BME280;40374;49.480;20.016;2023-03-19T05:46:37;62409.59;;;-145.97;100.00
54465;BME280;40374;49.480;20.016;2023-03-19T05:49:05;62409.59;;;-145.97;100.00
54465;BME280;40374;49.480;20.016;2023-03-19T05:51:32;62409.59;;;-145.97;100.00
54465;BME280;40374;49.480;20.016;2023-03-19T05:54:00;62409.59;;;-145.97;100.00
54465;BME280;40374;49.480;20.016;2023-03-19T05:56:54;62409.59;;;-145.97;100.00
54465;BME280;40374;49.480;20.016;2023-03-19T05:59:40;62409.59;;;-145.97;100.00
54465;BME280;40374;49.480;20.016;2023-03-19T06:02:41;62409.59;;;-145.97;100.00
54465;BME280;40374;49.480;20.016;2023-03-19T06:05:23;62409.59;;;-145.97;100.00
54465;BME280;40374;49.480;20.016;2023-03-19T06:07:54;62409.59;;;-145.97;100.00
54465;BME280;40374;49.480;20.016;2023-03-19T06:10:38;62409.59;;;-145.97;100.00
54465;BME280;40374;49.480;20.016;2023-03-19T06:13:09;62409.59;;;-145.97;100.00
54465;BME280;40374;49.480;20.016;2023-03-19T06:15:47;62409.59;;;-145.97;100.00
54465;BME280;40374;49.480;20.016;2023-03-19T06:18:23;62409.59;;;-145.97;100.00
54465;BME280;40374;49.480;20.016;2023-03-19T06:20:50;62409.59;;;-145.97;100.00
54465;BME280;40374;49.480;20.016;2023-03-19T06:23:18;62409.59;;;-145.97;100.00
54465;BME280;40374;49.480;20.016;2023-03-19T06:25:45;62409.59;;;-145.97;100.00
54465;BME280;40374;49.480;20.016;2023-03-19T06:28:14;62409.59;;;-145.97;100.00
54465;BME280;40374;49.480;20.016;2023-03-19T06:30:44;62409.59;;;-145.97;100.00
54465;BME280;40374;49.480;20.016;2023-03-19T06:33:42;62409.59;;;-145.97;100.00
54465;BME280;40374;49.480;20.016;2023-03-19T06:36:09;62409.59;;;-145.97;100.00
54465;BME280;40374;49.480;20.016;2023-03-19T06:38:37;62409.59;;;-145.97;100.00
54465;BME280;40374;49.480;20.016;2023-03-19T06:41:04;62409.59;;;-145.97;100.00
54465;BME280;40374;49.480;20.016;2023-03-19T06:43:32;62409.59;;;-145.97;100.00
54465;BME280;40374;49.480;20.016;2023-03-19T06:46:03;62409.59;;;-145.97;100.00
54465;BME280;40374;49.480;20.016;2023-03-19T06:48:32;62409.59;;;-145.97;100.00
54465;BME280;40374;49.480;20.016;2023-03-19T06:51:00;62409.59;;;-145.97;100.00
54465;BME280;40374;49.480;20.016;2023-03-19T06:53:30;62409.59;;;-145.97;100.00
54465;BME280;40374;49.480;20.016;2023-03-19T06:55:58;62409.59;;;-145.97;100.00
54465;BME280;40374;49.480;20.016;2023-03-19T06:58:25;62409.59;;;-145.97;100.00
54465;BME280;40374;49.480;20.016;2023-03-19T07:00:53;62409.59;;;-145.97;100.00
54465;BME280;40374;49.480;20.016;2023-03-19T07:03:21;62409.59;;;-145.97;100.00
54465;BME280;40374;49.480;20.016;2023-03-19T07:05:49;62409.59;;;-145.97;100.00
54465;BME280;40374;49.480;20.016;2023-03-19T07:08:18;62409.59;;;-145.97;100.00
54465;BME280;40374;49.480;20.016;2023-03-19T07:10:45;62409.59;;;-145.97;100.00
54465;BME280;40374;49.480;20.016;2023-03-19T07:13:13;62409.59;;;-145.97;100.00
54465;BME280;40374;49.480;20.016;2023-03-19T07:15:40;62409.59;;;-145.97;100.00
54465;BME280;40374;49.480;20.016;2023-03-19T07:18:08;62409.59;;;-145.97;100.00
54465;BME280;40374;49.480;20.016;2023-03-19T07:20:35;62409.59;;;-145.97;100.00
54465;BME280;40374;49.480;20.016;2023-03-19T07:23:03;62409.59;;;-145.97;100.00
54465;BME280;40374;49.480;20.016;2023-03-19T07:25:32;62409.59;;;-145.97;100.00
54465;BME280;40374;49.480;20.016;2023-03-19T07:27:59;62409.59;;;-145.97;100.00
54465;BME280;40374;49.480;20.016;2023-03-19T07:30:27;62409.59;;;-145.97;100.00
54465;BME280;40374;49.480;20.016;2023-03-19T07:32:54;62409.59;;;-145.97;100.00
54465;BME280;40374;49.480;20.016;2023-03-19T07:35:22;62409.59;;;-145.97;100.00
54465;BME280;40374;49.480;20.016;2023-03-19T07:37:49;62409.59;;;-145.97;100.00
54465;BME280;40374;49.480;20.016;2023-03-19T07:40:17;62409.59;;;-145.97;100.00
54465;BME280;40374;49.480;20.016;2023-03-19T07:42:44;62409.59;;;-145.97;100.00
54465;BME280;40374;49.480;20.016;2023-03-19T07:45:12;62409.59;;;-145.97;100.00
54465;BME280;40374;49.480;20.016;2023-03-19T07:47:40;62409.59;;;-145.97;100.00
54465;BME280;40374;49.480;20.016;2023-03-19T07:50:08;62409.59;;;-145.97;100.00
54465;BME280;40374;49.480;20.016;2023-03-19T07:52:37;62409.59;;;-145.97;100.00
54465;BME280;40374;49.480;20.016;2023-03-19T07:55:04;62409.59;;;-145.97;100.00
54465;BME280;40374;49.480;20.016;2023-03-19T07:57:33;62409.59;;;-145.97;100.00
54465;BME280;40374;49.480;20.016;2023-03-19T08:00:00;62409.59;;;-145.97;100.00
54465;BME280;40374;49.480;20.016;2023-03-19T08:02:28;62409.59;;;-145.97;100.00
54465;BME280;40374;49.480;20.016;2023-03-19T08:04:55;62409.59;;;-145.97;100.00
54465;BME280;40374;49.480;20.016;2023-03-19T08:07:23;62409.59;;;-145.97;100.00
54465;BME280;40374;49.480;20.016;2023-03-19T08:09:51;62409.59;;;-145.97;100.00
54465;BME280;40374;49.480;20.016;2023-03-19T08:12:19;62409.59;;;-145.97;100.00
54465;BME280;40374;49.480;20.016;2023-03-19T08:14:47;62409.59;;;-145.97;100.00
54465;BME280;40374;49.480;20.016;2023-03-19T08:17:14;62409.59;;;-145.97;100.00
54465;BME280;40374;49.480;20.016;2023-03-19T08:19:42;62409.59;;;-145.97;100.00
54465;BME280;40374;49.480;20.016;2023-03-19T08:22:10;62409.59;;;-145.97;100.00
54465;BME280;40374;49.480;20.016;2023-03-19T08:24:37;62409.59;;;-145.97;100.00
54465;BME280;40374;49.480;20.016;2023-03-19T08:27:05;62409.59;;;-145.97;100.00
54465;BME280;40374;49.480;20.016;2023-03-19T08:29:32;62409.59;;;-145.97;100.00
54465;BME280;40374;49.480;20.016;2023-03-19T08:32:00;62409.59;;;-145.97;100.00
54465;BME280;40374;49.480;20.016;2023-03-19T08:34:28;62409.59;;;-145.97;100.00
54465;BME280;40374;49.480;20.016;2023-03-19T08:36:56;62409.59;;;-145.97;100.00
54465;BME280;40374;49.480;20.016;2023-03-19T08:39:23;62409.59;;;-145.97;100.00
54465;BME280;40374;49.480;20.016;2023-03-19T08:41:50;62409.59;;;-145.97;100.00
54465;BME280;40374;49.480;20.016;2023-03-19T08:44:18;62409.59;;;-145.97;100.00
54465;BME280;40374;49.480;20.016;2023-03-19T08:46:46;62409.59;;;-145.97;100.00
54465;BME280;40374;49.480;20.016;2023-03-19T08:49:13;62409.59;;;-145.97;100.00
54465;BME280;40374;49.480;20.016;2023-03-19T08:51:40;62409.59;;;-145.97;100.00
54465;BME280;40374;49.480;20.016;2023-03-19T08:54:08;62409.59;;;-145.97;100.00
54465;BME280;40374;49.480;20.016;2023-03-19T08:56:37;62409.59;;;-145.97;100.00
54465;BME280;40374;49.480;20.016;2023-03-19T08:59:05;62409.59;;;-145.97;100.00
54465;BME280;40374;49.480;20.016;2023-03-19T09:01:32;62409.59;;;-145.97;100.00
54465;BME280;40374;49.480;20.016;2023-03-19T09:04:00;62409.59;;;-145.97;100.00
54465;BME280;40374;49.480;20.016;2023-03-19T09:06:29;62409.59;;;-145.97;100.00
54465;BME280;40374;49.480;20.016;2023-03-19T09:08:56;62409.59;;;-145.97;100.00
54465;BME280;40374;49.480;20.016;2023-03-19T09:11:24;62409.59;;;-145.97;100.00
54465;BME280;40374;49.480;20.016;2023-03-19T09:13:51;62409.59;;;-145.97;100.00
54465;BME280;40374;49.480;20.016;2023-03-19T09:16:20;62409.59;;;-145.97;100.00
54465;BME280;40374;49.480;20.016;2023-03-19T09:18:48;62409.59;;;-145.97;100.00
54465;BME280;40374;49.480;20.016;2023-03-19T09:21:15;62409.59;;;-145.97;100.00
54465;BME280;40374;49.480;20.016;2023-03-19T09:23:43;62409.59;;;-145.97;100.00
54465;BME280;40374;49.480;20.016;2023-03-19T09:26:11;62409.59;;;-145.97;100.00
54465;BME280;40374;49.480;20.016;2023-03-19T09:28:38;62409.59;;;-145.97;100.00
54465;BME280;40374;49.480;20.016;2023-03-19T09:31:08;62409.59;;;-145.97;100.00
54465;BME280;40374;49.480;20.016;2023-03-19T09:33:37;62409.59;;;-145.97;100.00
54465;BME280;40374;49.480;20.016;2023-03-19T09:36:05;62409.59;;;-145.97;100.00
54465;BME280;40374;49.480;20.016;2023-03-19T09:38:32;62409.59;;;-145.97;100.00
54465;BME280;40374;49.480;20.016;2023-03-19T09:41:26;62409.59;;;-145.97;100.00
54465;BME280;40374;49.480;20.016;2023-03-19T09:44:01;62409.59;;;-145.97;100.00
54465;BME280;40374;49.480;20.016;2023-03-19T09:46:53;62409.59;;;-145.97;100.00
54465;BME280;40374;49.480;20.016;2023-03-19T09:49:31;62409.59;;;-145.97;100.00
54465;BME280;40374;49.480;20.016;2023-03-19T09:54:44;62409.59;;;-145.97;100.00
54465;BME280;40374;49.480;20.016;2023-03-19T09:57:15;62409.59;;;-145.97;100.00
54465;BME280;40374;49.480;20.016;2023-03-19T09:59:44;62409.59;;;-145.97;100.00
54465;BME280;40374;49.480;20.016;2023-03-19T10:15:44;62409.59;;;-145.97;100.00
54465;BME280;40374;49.480;20.016;2023-03-19T10:18:18;62409.59;;;-145.97;100.00
54465;BME280;40374;49.480;20.016;2023-03-19T10:20:52;62409.59;;;-145.97;100.00
54465;BME280;40374;49.480;20.016;2023-03-19T10:23:37;62409.59;;;-145.97;100.00
54465;BME280;40374;49.480;20.016;2023-03-19T10:26:10;62409.59;;;-145.97;100.00
54465;BME280;40374;49.480;20.016;2023-03-19T10:28:43;62409.59;;;-145.97;100.00
54465;BME280;40374;49.480;20.016;2023-03-19T10:36:46;62409.59;;;-145.97;100.00
54465;BME280;40374;49.480;20.016;2023-03-19T10:39:17;62409.59;;;-145.97;100.00
54465;BME280;40374;49.480;20.016;2023-03-19T10:44:33;62409.59;;;-145.97;100.00
54465;BME280;40374;49.480;20.016;2023-03-19T10:47:11;62409.59;;;-145.97;100.00
54465;BME280;40374;49.480;20.016;2023-03-19T10:49:40;62409.59;;;-145.97;100.00
54465;BME280;40374;49.480;20.016;2023-03-19T10:52:22;62409.59;;;-145.97;100.00
54465;BME280;40374;49.480;20.016;2023-03-19T10:54:54;62409.59;;;-145.97;100.00
54465;BME280;40374;49.480;20.016;2023-03-19T10:57:27;62409.59;;;-145.97;100.00
54465;BME280;40374;49.480;20.016;2023-03-19T10:59:55;62409.59;;;-145.97;100.00
54465;BME280;40374;49.480;20.016;2023-03-19T11:02:29;62409.59;;;-145.97;100.00
54465;BME280;40374;49.480;20.016;2023-03-19T11:05:06;62409.59;;;-145.97;100.00
54465;BME280;40374;49.480;20.016;2023-03-19T11:07:35;62409.59;;;-145.97;100.00
54465;BME280;40374;49.480;20.016;2023-03-19T11:10:04;62409.59;;;-145.97;100.00
54465;BME280;40374;49.480;20.016;2023-03-19T11:12:34;62409.59;;;-145.97;100.00
54465;BME280;40374;49.480;20.016;2023-03-19T11:15:17;62409.59;;;-145.97;100.00
54465;BME280;40374;49.480;20.016;2023-03-19T11:17:57;62409.59;;;-145.97;100.00
54465;BME280;40374;49.480;20.016;2023-03-19T11:22:54;62409.59;;;-145.97;100.00
54465;BME280;40374;49.480;20.016;2023-03-19T11:25:33;62409.59;;;-145.97;100.00
54465;BME280;40374;49.480;20.016;2023-03-19T11:28:12;62409.59;;;-145.97;100.00
54465;BME280;40374;49.480;20.016;2023-03-19T11:36:48;62409.59;;;-145.97;100.00
54465;BME280;40374;49.480;20.016;2023-03-19T11:44:54;62409.59;;;-145.97;100.00
54465;BME280;40374;49.480;20.016;2023-03-19T11:53:09;62409.59;;;-145.97;100.00
54465;BME280;40374;49.480;20.016;2023-03-19T11:55:44;62409.59;;;-145.97;100.00
54465;BME280;40374;49.480;20.016;2023-03-19T12:01:19;62409.59;;;-145.97;100.00
54465;BME280;40374;49.480;20.016;2023-03-19T12:06:47;62409.59;;;-145.97;100.00
54465;BME280;40374;49.480;20.016;2023-03-19T12:09:24;62409.59;;;-145.97;100.00
54465;BME280;40374;49.480;20.016;2023-03-19T12:14:50;62409.59;;;-145.97;100.00
54465;BME280;40374;49.480;20.016;2023-03-19T12:31:22;62409.59;;;-145.97;100.00
54465;BME280;40374;49.480;20.016;2023-03-19T12:34:41;62409.59;;;-145.97;100.00
54465;BME280;40374;49.480;20.016;2023-03-19T12:37:23;62409.59;;;-145.97;100.00
54465;BME280;40374;49.480;20.016;2023-03-19T12:40:13;62409.59;;;-145.97;100.00
54465;BME280;40374;49.480;20.016;2023-03-19T12:42:43;62409.59;;;-145.97;100.00
54465;BME280;40374;49.480;20.016;2023-03-19T12:45:22;62409.59;;;-145.97;100.00
54465;BME280;40374;49.480;20.016;2023-03-19T12:47:58;62409.59;;;-145.97;100.00
54465;BME280;40374;49.480;20.016;2023-03-19T12:50:29;62409.59;;;-145.97;100.00
54465;BME280;40374;49.480;20.016;2023-03-19T12:52:59;62409.59;;;-145.97;100.00
54465;BME280;40374;49.480;20.016;2023-03-19T12:55:42;62409.59;;;-145.97;100.00
54465;BME280;40374;49.480;20.016;2023-03-19T13:01:01;62409.59;;;-145.97;100.00
54465;BME280;40374;49.480;20.016;2023-03-19T13:06:43;62409.59;;;-145.97;100.00
54465;BME280;40374;49.480;20.016;2023-03-19T13:11:48;62409.59;;;-145.97;100.00
54465;BME280;40374;49.480;20.016;2023-03-19T13:19:45;62409.59;;;-145.97;100.00
54465;BME280;40374;49.480;20.016;2023-03-19T13:22:18;62409.59;;;-145.97;100.00
54465;BME280;40374;49.480;20.016;2023-03-19T13:24:48;62409.59;;;-145.97;100.00
54465;BME280;40374;49.480;20.016;2023-03-19T13:27:31;62409.59;;;-145.97;100.00
54465;BME280;40374;49.480;20.016;2023-03-19T13:32:50;62409.59;;;-145.97;100.00
54465;BME280;40374;49.480;20.016;2023-03-19T13:35:44;62409.59;;;-145.97;100.00
54465;BME280;40374;49.480;20.016;2023-03-19T13:40:43;62409.59;;;-145.97;100.00
54465;BME280;40374;49.480;20.016;2023-03-19T13:48:33;62409.59;;;-145.97;100.00
54465;BME280;40374;49.480;20.016;2023-03-19T13:51:22;62409.59;;;-145.97;100.00
54465;BME280;40374;49.480;20.016;2023-03-19T13:59:29;62409.59;;;-145.97;100.00
54465;BME280;40374;49.480;20.016;2023-03-19T14:01:58;62409.59;;;-145.97;100.00
54465;BME280;40374;49.480;20.016;2023-03-19T14:04:29;62409.59;;;-145.97;100.00
54465;BME280;40374;49.480;20.016;2023-03-19T14:09:42;62409.59;;;-145.97;100.00
54465;BME280;40374;49.480;20.016;2023-03-19T14:12:20;62409.59;;;-145.97;100.00
54465;BME280;40374;49.480;20.016;2023-03-19T14:14:57;62409.59;;;-145.97;100.00
54465;BME280;40374;49.480;20.016;2023-03-19T14:17:32;62409.59;;;-145.97;100.00
54465;BME280;40374;49.480;20.016;2023-03-19T14:20:34;62409.59;;;-145.97;100.00
54465;BME280;40374;49.480;20.016;2023-03-19T14:23:19;62409.59;;;-145.97;100.00
54465;BME280;40374;49.480;20.016;2023-03-19T14:28:36;62409.59;;;-145.97;100.00
54465;BME280;40374;49.480;20.016;2023-03-19T14:31:05;62409.59;;;-145.97;100.00
54465;BME280;40374;49.480;20.016;2023-03-19T14:33:47;62409.59;;;-145.97;100.00
54465;BME280;40374;49.480;20.016;2023-03-19T14:36:18;62409.59;;;-145.97;100.00